createdAt,value
2019-05-23T00:01:42.881Z,13.20
2019-05-23T00:06:59.254Z,13.75
2019-05-23T00:09:28.104Z,13.32
2019-05-23T00:12:04.308Z,12.88
2019-05-23T00:14:40.370Z,13.65
2019-05-23T00:17:12.681Z,14.13
2019-05-23T00:19:42.280Z,12.53
2019-05-23T00:22:11.547Z,12.53
2019-05-23T00:24:42.491Z,12.13
2019-05-23T00:27:12.838Z,13.83
2019-05-23T00:29:43.191Z,13.28
2019-05-23T00:32:23.251Z,13.18
2019-05-23T00:34:53.395Z,12.47
2019-05-23T00:37:23.823Z,13.68
2019-05-23T00:39:53.219Z,13.20
2019-05-23T00:42:22.576Z,14.28
2019-05-23T00:44:52.135Z,13.35
2019-05-23T00:47:21.226Z,14.03
2019-05-23T00:49:50.381Z,15.15
2019-05-23T00:52:19.134Z,14.80
2019-05-23T00:54:48.322Z,14.65
2019-05-23T00:57:18.740Z,14.55
2019-05-23T00:59:49.094Z,15.18
2019-05-23T01:02:17.959Z,14.83
2019-05-23T01:04:47.614Z,14.25
2019-05-23T01:07:16.539Z,14.80
2019-05-23T01:09:46.525Z,14.20
2019-05-23T01:12:15.850Z,13.93
2019-05-23T01:14:44.370Z,14.90
2019-05-23T01:17:13.664Z,15.18
2019-05-23T01:19:43.125Z,15.05
2019-05-23T01:22:14.708Z,14.30
2019-05-23T01:24:47.442Z,14.38
2019-05-23T01:27:17.226Z,16.25
2019-05-23T01:29:50.006Z,15.32
2019-05-23T01:32:26.131Z,15.38
2019-05-23T01:34:55.513Z,14.53
2019-05-23T01:37:24.420Z,15.93
2019-05-23T01:39:53.490Z,14.85
2019-05-23T01:42:23.973Z,15.35
2019-05-23T01:44:55.269Z,15.98
2019-05-23T01:47:24.149Z,14.90
2019-05-23T01:49:53.204Z,16.55
2019-05-23T01:52:21.676Z,16.37
2019-05-23T01:54:50.746Z,15.68
2019-05-23T01:57:19.818Z,15.48
2019-05-23T02:00:06.133Z,15.60
2019-05-23T02:02:21.070Z,13.65
2019-05-23T02:04:50.806Z,14.45
2019-05-23T02:07:31.733Z,15.10
2019-05-23T02:10:00.185Z,15.35
2019-05-23T02:12:29.037Z,15.35
2019-05-23T02:14:57.478Z,15.03
2019-05-23T02:17:26.336Z,16.45
2019-05-23T02:19:55.346Z,15.32
2019-05-23T02:22:24.753Z,16.67
2019-05-23T02:24:53.919Z,16.50
2019-05-23T02:27:23.362Z,16.37
2019-05-23T02:29:51.983Z,15.48
2019-05-23T02:32:20.530Z,17.65
2019-05-23T02:34:49.096Z,16.73
2019-05-23T02:37:35.486Z,16.93
2019-05-23T02:40:25.392Z,16.48
2019-05-23T02:43:05.094Z,15.43
2019-05-23T02:45:44.971Z,16.00
2019-05-23T02:48:25.128Z,15.08
2019-05-23T02:50:58.268Z,16.25
2019-05-23T02:53:30.628Z,17.42
2019-05-23T02:56:02.375Z,16.23
2019-05-23T02:59:01.772Z,15.98
2019-05-23T03:01:46.821Z,15.20
2019-05-23T03:04:17.413Z,15.00
2019-05-23T03:06:46.105Z,16.02
2019-05-23T03:09:16.713Z,14.33
2019-05-23T03:11:48.977Z,15.28
2019-05-23T03:14:19.250Z,15.05
2019-05-23T03:16:52.418Z,15.00
2019-05-23T03:19:23.935Z,15.32
2019-05-23T03:21:54.450Z,15.13
2019-05-23T03:24:25.022Z,15.13
2019-05-23T03:27:02.630Z,14.90
2019-05-23T03:29:39.480Z,15.08
2019-05-23T03:32:12.948Z,15.18
2019-05-23T03:34:43.021Z,15.23
2019-05-23T03:37:11.619Z,16.20
2019-05-23T03:39:40.067Z,15.93
2019-05-23T03:42:09.586Z,15.30
2019-05-23T03:44:39.086Z,17.67
2019-05-23T03:47:09.941Z,16.75
2019-05-23T03:49:39.286Z,16.87
2019-05-23T03:52:10.331Z,14.85
2019-05-23T03:54:40.046Z,16.25
2019-05-23T03:57:08.966Z,17.20
2019-05-23T03:59:38.884Z,16.60
2019-05-23T04:02:09.073Z,14.18
2019-05-23T04:04:39.551Z,17.15
2019-05-23T04:07:08.246Z,17.80
2019-05-23T04:09:36.773Z,17.92
2019-05-23T04:12:05.971Z,17.77
2019-05-23T04:14:35.334Z,19.37
2019-05-23T04:17:04.417Z,18.25
2019-05-23T04:19:33.238Z,18.95
2019-05-23T04:22:01.763Z,17.12
2019-05-23T04:24:30.733Z,19.62
2019-05-23T04:26:59.297Z,18.90
2019-05-23T04:29:28.539Z,18.73
2019-05-23T04:32:07.656Z,19.30
2019-05-23T04:34:27.224Z,20.12
2019-05-23T04:36:55.754Z,18.30
2019-05-23T04:39:24.587Z,20.10
2019-05-23T04:41:53.179Z,20.97
2019-05-23T04:44:21.697Z,21.60
2019-05-23T04:46:50.413Z,20.32
2019-05-23T04:49:18.818Z,20.77
2019-05-23T04:51:47.781Z,19.98
2019-05-23T04:54:17.143Z,21.80
2019-05-23T04:56:46.736Z,20.70
2019-05-23T04:59:16.424Z,21.60
2019-05-23T05:01:46.441Z,19.98
2019-05-23T05:04:16.718Z,20.85
2019-05-23T05:06:48.219Z,22.40
2019-05-23T05:09:25.067Z,22.13
2019-05-23T05:11:54.185Z,20.97
2019-05-23T05:14:22.732Z,20.45
2019-05-23T05:16:51.939Z,22.17
2019-05-23T05:19:20.787Z,17.02
2019-05-23T05:21:50.540Z,20.23
2019-05-23T05:24:19.311Z,22.35
2019-05-23T05:26:50.686Z,20.65
2019-05-23T05:29:19.138Z,22.75
2019-05-23T05:31:47.589Z,20.65
2019-05-23T05:34:16.262Z,19.50
2019-05-23T05:36:44.840Z,21.90
2019-05-23T05:39:14.004Z,19.30
2019-05-23T05:41:43.339Z,20.08
2019-05-23T05:44:12.302Z,18.10
2019-05-23T05:46:42.566Z,17.10
2019-05-23T05:49:12.557Z,18.67
2019-05-23T05:51:41.309Z,19.05
2019-05-23T05:54:10.162Z,14.80
2019-05-23T05:56:38.604Z,16.73
2019-05-23T05:59:07.218Z,17.95
2019-05-23T06:01:36.565Z,14.80
2019-05-23T06:04:05.319Z,16.30
2019-05-23T06:06:37.911Z,17.77
2019-05-23T06:09:09.506Z,18.20
2019-05-23T06:11:38.003Z,17.37
2019-05-23T06:14:07.529Z,17.67
2019-05-23T06:16:36.141Z,16.75
2019-05-23T06:19:06.444Z,17.50
2019-05-23T06:21:35.154Z,14.93
2019-05-23T06:24:04.719Z,18.00
2019-05-23T06:26:33.605Z,13.48
2019-05-23T06:29:02.220Z,19.02
2019-05-23T06:31:32.032Z,15.80
2019-05-23T06:34:00.680Z,14.98
2019-05-23T06:36:29.654Z,16.90
2019-05-23T06:38:58.094Z,14.70
2019-05-23T06:41:26.852Z,12.58
2019-05-23T06:43:55.452Z,13.10
2019-05-23T06:46:24.265Z,13.40
2019-05-23T06:48:52.759Z,14.98
2019-05-23T06:51:22.535Z,15.40
2019-05-23T06:53:51.320Z,14.33
2019-05-23T06:56:19.767Z,13.32
2019-05-23T06:58:48.642Z,14.45
2019-05-23T07:01:17.148Z,15.08
2019-05-23T07:03:45.701Z,13.88
2019-05-23T07:06:17.173Z,12.95
2019-05-23T07:08:45.876Z,12.85
2019-05-23T07:11:15.830Z,12.07
2019-05-23T07:13:46.167Z,16.17
2019-05-23T07:16:14.604Z,16.57
2019-05-23T07:18:44.469Z,15.83
2019-05-23T07:21:13.554Z,12.73
2019-05-23T07:23:41.994Z,16.02
2019-05-23T07:26:11.144Z,13.30
2019-05-23T07:28:39.677Z,13.90
2019-05-23T07:31:09.000Z,13.75
2019-05-23T07:33:37.812Z,13.65
2019-05-23T07:36:06.325Z,14.70
2019-05-23T07:38:34.721Z,13.90
2019-05-23T07:41:03.860Z,13.28
2019-05-23T07:43:32.305Z,13.80
2019-05-23T07:46:01.513Z,14.05
2019-05-23T07:48:31.366Z,11.70
2019-05-23T07:50:59.878Z,11.73
2019-05-23T07:53:43.981Z,11.45
2019-05-23T07:56:14.311Z,9.75
2019-05-23T07:58:42.798Z,10.55
2019-05-23T08:01:18.761Z,8.93
2019-05-23T08:03:49.970Z,8.95
2019-05-23T08:06:18.413Z,8.55
2019-05-23T08:08:47.425Z,6.75
2019-05-23T08:11:15.882Z,6.60
2019-05-23T08:13:44.320Z,6.70
2019-05-23T08:16:12.935Z,7.47
2019-05-23T08:18:42.428Z,6.10
2019-05-23T08:21:10.961Z,6.67
2019-05-23T08:23:39.628Z,7.28
2019-05-23T08:26:08.080Z,7.55
2019-05-23T08:28:36.874Z,7.90
2019-05-23T08:31:06.745Z,8.88
2019-05-23T08:33:35.880Z,9.30
2019-05-23T08:36:05.352Z,9.48
2019-05-23T08:38:33.953Z,11.00
2019-05-23T08:41:02.449Z,13.88
2019-05-23T08:43:31.037Z,14.05
2019-05-23T08:45:59.675Z,13.83
2019-05-23T08:48:28.745Z,13.93
2019-05-23T08:50:57.212Z,14.03
2019-05-23T08:53:26.086Z,14.85
2019-05-23T08:55:55.232Z,15.13
2019-05-23T08:58:23.824Z,14.38
2019-05-23T09:00:52.247Z,14.87
2019-05-23T09:03:21.402Z,15.78
2019-05-23T09:05:50.034Z,15.08
2019-05-23T09:08:19.611Z,14.07
2019-05-23T09:10:49.033Z,14.20
2019-05-23T09:13:17.613Z,13.05
2019-05-23T09:15:46.160Z,14.75
2019-05-23T09:18:14.809Z,13.70
2019-05-23T09:20:43.366Z,13.70
2019-05-23T09:23:12.084Z,14.58
2019-05-23T09:25:40.514Z,13.48
2019-05-23T09:28:09.721Z,13.28
2019-05-23T09:30:38.316Z,12.28
2019-05-23T09:33:07.185Z,12.88
2019-05-23T09:35:36.129Z,11.95
2019-05-23T09:38:05.138Z,10.80
2019-05-23T09:40:33.772Z,11.88
2019-05-23T09:43:02.252Z,11.75
2019-05-23T09:45:30.682Z,11.22
2019-05-23T09:47:59.297Z,10.78
2019-05-23T09:50:27.856Z,10.95
2019-05-23T09:52:57.519Z,11.18
2019-05-23T09:55:26.498Z,9.83
2019-05-23T09:57:54.927Z,9.33
2019-05-23T10:00:25.352Z,10.18
2019-05-23T10:02:54.193Z,8.28
2019-05-23T10:05:40.638Z,8.53
2019-05-23T10:07:52.984Z,7.95
2019-05-23T10:10:23.500Z,8.40
2019-05-23T10:12:51.966Z,8.48
2019-05-23T10:15:25.203Z,6.55
2019-05-23T10:18:00.569Z,4.78
2019-05-23T10:20:30.082Z,5.03
2019-05-23T10:22:58.540Z,4.35
2019-05-23T10:25:26.962Z,5.67
2019-05-23T10:27:55.936Z,5.42
2019-05-23T10:30:25.056Z,4.67
2019-05-23T10:32:53.531Z,5.10
2019-05-23T10:35:22.597Z,5.28
2019-05-23T10:37:51.285Z,5.08
2019-05-23T10:40:20.110Z,4.55
2019-05-23T10:42:48.768Z,4.78
2019-05-23T10:45:18.735Z,5.33
2019-05-23T10:47:47.176Z,4.80
2019-05-23T10:50:16.111Z,4.53
2019-05-23T10:52:44.553Z,4.83
2019-05-23T10:55:13.146Z,4.70
2019-05-23T10:57:41.577Z,3.70
2019-05-23T11:00:13.696Z,4.15
2019-05-23T11:02:43.126Z,3.00
2019-05-23T11:05:14.091Z,3.60
2019-05-23T11:07:43.675Z,3.30
2019-05-23T11:10:17.155Z,3.45
2019-05-23T11:12:45.664Z,3.10
2019-05-23T11:15:14.263Z,3.70
2019-05-23T11:17:43.061Z,3.60
2019-05-23T11:20:13.306Z,3.70
2019-05-23T11:22:42.450Z,3.27
2019-05-23T11:25:13.077Z,3.27
2019-05-23T11:27:41.682Z,4.00
2019-05-23T11:30:12.731Z,3.52
2019-05-23T11:32:41.261Z,4.47
2019-05-23T11:35:09.943Z,4.22
2019-05-23T11:37:41.746Z,5.22
2019-05-23T11:40:09.002Z,4.15
2019-05-23T11:42:37.496Z,4.05
2019-05-23T11:45:07.062Z,4.55
2019-05-23T11:47:35.936Z,3.05
2019-05-23T11:50:09.442Z,3.22
2019-05-23T11:52:39.357Z,2.80
2019-05-23T11:55:08.306Z,2.45
2019-05-23T11:57:38.427Z,1.95
2019-05-23T12:00:10.637Z,2.08
2019-05-23T12:02:41.181Z,2.17
2019-05-23T12:05:11.589Z,2.65
2019-05-23T12:07:40.093Z,2.30
2019-05-23T12:10:09.249Z,2.35
2019-05-23T12:12:37.751Z,2.17
2019-05-23T12:15:11.482Z,2.33
2019-05-23T12:17:40.301Z,2.17
2019-05-23T12:20:09.165Z,2.30
2019-05-23T12:22:38.199Z,2.70
2019-05-23T12:25:20.966Z,2.60
2019-05-23T12:27:38.460Z,2.80
2019-05-23T12:30:09.364Z,2.30
2019-05-23T12:32:37.809Z,2.70
2019-05-23T12:35:11.245Z,2.00
2019-05-23T12:37:37.374Z,2.42
2019-05-23T12:40:09.178Z,2.37
2019-05-23T12:42:37.655Z,2.42
2019-05-23T12:45:08.491Z,2.00
2019-05-23T12:47:55.382Z,2.83
2019-05-23T12:50:31.417Z,2.25
2019-05-23T12:53:09.065Z,2.70
2019-05-23T12:55:37.654Z,2.52
2019-05-23T12:58:06.329Z,2.60
2019-05-23T13:00:42.723Z,2.25
2019-05-23T13:03:13.537Z,2.33
2019-05-23T13:05:42.167Z,2.47
2019-05-23T13:08:16.975Z,2.08
2019-05-23T13:10:45.481Z,2.42
2019-05-23T13:13:14.503Z,2.40
2019-05-23T13:15:43.879Z,2.72
2019-05-23T13:18:12.368Z,1.70
2019-05-23T13:20:41.983Z,1.98
2019-05-23T13:23:19.911Z,2.00
2019-05-23T13:25:40.884Z,2.00
2019-05-23T13:28:09.400Z,1.90
2019-05-23T13:30:37.916Z,2.12
2019-05-23T13:33:06.347Z,2.33
2019-05-23T13:35:35.087Z,2.47
2019-05-23T13:38:05.921Z,2.00
2019-05-23T13:40:34.995Z,2.25
2019-05-23T13:43:07.935Z,2.08
2019-05-23T13:45:35.271Z,2.45
2019-05-23T13:48:06.458Z,2.72
2019-05-23T13:50:35.185Z,2.52
2019-05-23T13:53:04.337Z,2.67
2019-05-23T13:55:32.841Z,2.47
2019-05-23T13:58:01.302Z,2.08
2019-05-23T14:00:30.495Z,2.60
2019-05-23T14:02:59.140Z,2.47
2019-05-23T14:05:27.943Z,2.77
2019-05-23T14:08:10.448Z,2.60
2019-05-23T14:10:27.185Z,2.42
2019-05-23T14:12:58.492Z,2.50
2019-05-23T14:15:31.756Z,2.80
2019-05-23T14:18:00.410Z,2.65
2019-05-23T14:20:29.067Z,2.70
2019-05-23T14:23:08.368Z,2.33
2019-05-23T14:25:38.090Z,2.33
2019-05-23T14:28:08.175Z,2.25
2019-05-23T14:30:38.351Z,2.40
2019-05-23T14:33:24.119Z,2.20
2019-05-23T14:35:57.034Z,1.72
2019-05-23T14:38:30.690Z,1.60
2019-05-23T14:40:58.133Z,1.92
2019-05-23T14:43:27.982Z,1.70
2019-05-23T14:46:02.576Z,1.50
2019-05-23T14:48:49.191Z,1.85
2019-05-23T14:51:19.259Z,1.20
2019-05-23T14:53:58.518Z,1.75
2019-05-23T14:56:28.881Z,1.20
2019-05-23T14:58:57.320Z,1.30
2019-05-23T15:01:27.691Z,1.30
2019-05-23T15:03:56.290Z,1.40
2019-05-23T15:06:25.117Z,1.30
2019-05-23T15:08:54.056Z,1.07
2019-05-23T15:11:22.736Z,1.60
2019-05-23T15:13:51.727Z,1.50
2019-05-23T15:16:20.473Z,1.17
2019-05-23T15:18:49.057Z,1.47
2019-05-23T15:21:17.539Z,1.30
2019-05-23T15:23:46.063Z,1.10
2019-05-23T15:26:23.018Z,1.40
2019-05-23T15:28:44.720Z,1.32
2019-05-23T15:31:16.672Z,1.20
2019-05-23T15:33:45.079Z,1.32
2019-05-23T15:36:13.612Z,1.30
2019-05-23T15:38:42.192Z,2.00
2019-05-23T15:41:10.716Z,2.10
2019-05-23T15:43:39.141Z,1.40
2019-05-23T15:46:07.599Z,2.72
2019-05-23T15:48:36.099Z,1.72
2019-05-23T15:51:05.232Z,2.00
2019-05-23T15:53:35.379Z,1.55
2019-05-23T15:56:28.105Z,1.35
2019-05-23T15:59:02.205Z,2.15
2019-05-23T16:01:48.921Z,4.08
2019-05-23T16:04:22.165Z,2.87
2019-05-23T16:06:51.446Z,2.00
2019-05-23T16:09:29.215Z,2.25
2019-05-23T16:11:51.185Z,2.02
2019-05-23T16:14:20.886Z,2.10
2019-05-23T16:16:49.331Z,2.60
2019-05-23T16:19:17.833Z,2.22
2019-05-23T16:21:46.460Z,2.67
2019-05-23T16:24:14.997Z,2.20
2019-05-23T16:26:43.853Z,2.47
2019-05-23T16:29:13.774Z,2.00
2019-05-23T16:31:42.605Z,1.82
2019-05-23T16:34:11.011Z,1.90
2019-05-23T16:36:39.517Z,1.90
2019-05-23T16:39:10.861Z,2.42
2019-05-23T16:41:39.375Z,2.40
2019-05-23T16:44:07.936Z,2.37
2019-05-23T16:46:36.398Z,2.50
2019-05-23T16:49:05.057Z,2.90
2019-05-23T16:51:33.550Z,2.60
2019-05-23T16:54:02.967Z,2.55
2019-05-23T16:56:35.928Z,2.60
2019-05-23T16:59:12.119Z,3.15
2019-05-23T17:01:54.839Z,2.77
2019-05-23T17:04:30.844Z,2.17
2019-05-23T17:07:17.282Z,2.20
2019-05-23T17:10:07.589Z,2.42
2019-05-23T17:12:29.696Z,2.80
2019-05-23T17:15:11.916Z,3.05
2019-05-23T17:18:03.040Z,3.20
2019-05-23T17:20:33.642Z,4.10
2019-05-23T17:23:06.435Z,3.37
2019-05-23T17:25:48.707Z,3.30
2019-05-23T17:28:33.541Z,3.90
2019-05-23T17:33:37.570Z,3.58
2019-05-23T17:36:06.125Z,3.12
2019-05-23T17:38:34.558Z,2.85
2019-05-23T17:41:03.645Z,2.72
2019-05-23T17:43:32.229Z,3.35
2019-05-23T17:46:00.673Z,3.15
2019-05-23T17:48:29.269Z,3.30
2019-05-23T17:50:57.719Z,2.80
2019-05-23T17:53:26.629Z,3.47
2019-05-23T17:55:55.716Z,3.17
2019-05-23T17:58:25.161Z,3.20
2019-05-23T18:00:56.198Z,3.62
2019-05-23T18:03:24.660Z,3.00
2019-05-23T18:05:53.190Z,2.92
2019-05-23T18:08:21.610Z,3.50
2019-05-23T18:10:50.036Z,4.20
2019-05-23T18:13:19.497Z,4.25
2019-05-23T18:15:48.519Z,5.10
2019-05-23T18:18:18.050Z,4.50
2019-05-23T18:20:46.524Z,4.37
2019-05-23T18:23:15.847Z,4.12
2019-05-23T18:25:44.434Z,3.85
2019-05-23T18:28:14.682Z,3.92
2019-05-23T18:30:45.452Z,3.70
2019-05-23T18:33:15.673Z,3.60
2019-05-23T18:35:44.207Z,3.05
2019-05-23T18:38:13.103Z,2.92
2019-05-23T18:40:41.873Z,3.33
2019-05-23T18:43:10.284Z,2.75
2019-05-23T18:45:41.118Z,2.60
2019-05-23T18:48:09.640Z,2.67
2019-05-23T18:50:38.527Z,2.60
2019-05-23T18:53:08.479Z,2.80
2019-05-23T18:55:38.147Z,2.98
2019-05-23T18:58:07.595Z,2.55
2019-05-23T19:00:47.906Z,2.60
2019-05-23T19:03:16.435Z,2.30
2019-05-23T19:05:52.000Z,2.70
2019-05-23T19:08:20.571Z,2.10
2019-05-23T19:10:49.159Z,2.20
2019-05-23T19:13:17.600Z,2.65
2019-05-23T19:15:46.112Z,2.65
2019-05-23T19:18:15.892Z,2.15
2019-05-23T19:20:44.319Z,2.20
2019-05-23T19:23:13.213Z,2.17
2019-05-23T19:25:43.540Z,1.90
2019-05-23T19:28:12.739Z,2.22
2019-05-23T19:30:42.332Z,2.10
2019-05-23T19:33:11.036Z,2.00
2019-05-23T19:35:39.838Z,2.33
2019-05-23T19:38:08.505Z,2.15
2019-05-23T19:40:37.145Z,1.98
2019-05-23T19:43:06.767Z,2.27
2019-05-23T19:45:36.486Z,2.45
2019-05-23T19:48:05.511Z,1.98
2019-05-23T19:50:34.082Z,2.70
2019-05-23T19:53:02.513Z,2.67
2019-05-23T19:55:31.777Z,2.50
2019-05-23T19:58:00.779Z,2.42
2019-05-23T20:00:31.512Z,2.77
2019-05-23T20:03:03.721Z,2.67
2019-05-23T20:05:32.010Z,3.35
2019-05-23T20:08:00.851Z,3.00
2019-05-23T20:10:30.187Z,2.62
2019-05-23T20:12:58.949Z,2.95
2019-05-23T20:15:28.078Z,2.33
2019-05-23T20:17:56.683Z,2.70
2019-05-23T20:20:25.942Z,2.50
2019-05-23T20:22:54.388Z,2.37
2019-05-23T20:25:24.617Z,2.70
2019-05-23T20:27:53.234Z,2.90
2019-05-23T20:30:44.302Z,3.10
2019-05-23T20:33:12.869Z,2.65
2019-05-23T20:35:44.671Z,2.72
2019-05-23T20:38:13.344Z,2.45
2019-05-23T20:40:41.913Z,2.45
2019-05-23T20:43:10.587Z,2.45
2019-05-23T20:45:39.419Z,2.70
2019-05-23T20:48:08.545Z,2.50
2019-05-23T20:50:37.075Z,2.60
2019-05-23T20:53:05.780Z,2.72
2019-05-23T20:55:34.696Z,2.80
2019-05-23T20:58:04.191Z,2.52
2019-05-23T21:00:34.352Z,2.45
2019-05-23T21:03:03.806Z,2.37
2019-05-23T21:05:32.566Z,2.87
2019-05-23T21:08:01.084Z,2.50
2019-05-23T21:10:47.256Z,2.20
2019-05-23T21:13:15.902Z,2.35
2019-05-23T21:15:51.176Z,2.17
2019-05-23T21:18:17.098Z,2.00
2019-05-23T21:20:45.589Z,2.12
2019-05-23T21:23:14.248Z,2.40
2019-05-23T21:25:44.363Z,2.40
2019-05-23T21:28:12.855Z,2.30
2019-05-23T21:30:41.511Z,2.27
2019-05-23T21:33:10.120Z,2.20
2019-05-23T21:35:38.574Z,2.35
2019-05-23T21:38:07.039Z,2.62
2019-05-23T21:40:38.617Z,2.45
2019-05-23T21:43:07.219Z,2.55
2019-05-23T21:45:35.636Z,2.77
2019-05-23T21:48:04.463Z,2.67
2019-05-23T21:50:33.206Z,2.60
2019-05-23T21:53:02.010Z,3.20
2019-05-23T21:55:43.962Z,2.72
2019-05-23T21:58:14.146Z,2.65
2019-05-23T22:01:07.913Z,3.10
2019-05-23T22:03:57.678Z,3.00
2019-05-23T22:06:30.527Z,3.02
2019-05-23T22:08:59.415Z,2.90
2019-05-23T22:11:27.831Z,3.00
2019-05-23T22:13:56.460Z,2.92
2019-05-23T22:16:25.060Z,3.00
2019-05-23T22:18:53.469Z,3.10
2019-05-23T22:21:22.238Z,3.05
2019-05-23T22:23:50.671Z,3.30
2019-05-23T22:26:19.139Z,2.87
2019-05-23T22:28:47.582Z,3.20
2019-05-23T22:31:16.163Z,2.80
2019-05-23T22:33:52.172Z,2.85
2019-05-23T22:36:22.411Z,2.70
2019-05-23T22:38:50.923Z,3.08
2019-05-23T22:41:19.444Z,3.15
2019-05-23T22:43:51.325Z,3.12
2019-05-23T22:46:21.450Z,2.95
2019-05-23T22:48:49.884Z,3.08
2019-05-23T22:51:18.355Z,2.95
2019-05-23T22:53:46.781Z,2.80
2019-05-23T22:56:15.216Z,3.55
2019-05-23T22:58:43.914Z,3.30
2019-05-23T23:01:12.365Z,3.40
2019-05-23T23:03:40.817Z,3.33
2019-05-23T23:06:09.731Z,3.83
2019-05-23T23:08:38.419Z,3.50
2019-05-23T23:11:06.819Z,3.40
2019-05-23T23:13:38.825Z,3.70
2019-05-23T23:16:05.744Z,3.40
2019-05-23T23:18:34.188Z,2.98
2019-05-23T23:21:02.613Z,3.05
2019-05-23T23:23:31.078Z,3.58
2019-05-23T23:25:59.507Z,3.30
2019-05-23T23:28:28.117Z,3.17
2019-05-23T23:30:56.606Z,3.17
2019-05-23T23:33:25.081Z,3.40
2019-05-23T23:35:53.482Z,3.17
2019-05-23T23:38:21.929Z,4.10
2019-05-23T23:40:50.352Z,3.70
2019-05-23T23:43:18.825Z,3.45
2019-05-23T23:46:05.362Z,3.65
2019-05-23T23:48:51.271Z,3.70
2019-05-23T23:51:37.428Z,3.95
2019-05-23T23:54:23.564Z,4.10
2019-05-23T23:57:10.002Z,4.60
2019-05-23T23:59:37.714Z,4.60
